sensor_id;sensor_type;location;lat;lon;timestamp;P1;durP1;ratioP1;P2;durP2;ratioP2
37655;SDS011;23498;50.958;3.124;2022-10-12T00:00:25;21.45;;;15.02;;
37655;SDS011;23498;50.958;3.124;2022-10-12T00:02:51;22.20;;;14.43;;
37655;SDS011;23498;50.958;3.124;2022-10-12T00:05:17;21.25;;;14.45;;
37655;SDS011;23498;50.958;3.124;2022-10-12T00:07:43;21.42;;;14.20;;
37655;SDS011;23498;50.958;3.124;2022-10-12T00:10:09;20.02;;;14.30;;
37655;SDS011;23498;50.958;3.124;2022-10-12T00:12:35;22.42;;;14.82;;
37655;SDS011;23498;50.958;3.124;2022-10-12T00:15:01;20.95;;;14.60;;
37655;SDS011;23498;50.958;3.124;2022-10-12T00:17:27;20.67;;;15.00;;
37655;SDS011;23498;50.958;3.124;2022-10-12T00:19:53;20.52;;;14.57;;
37655;SDS011;23498;50.958;3.124;2022-10-12T00:22:19;19.33;;;14.65;;
37655;SDS011;23498;50.958;3.124;2022-10-12T00:24:45;18.85;;;13.93;;
37655;SDS011;23498;50.958;3.124;2022-10-12T00:27:11;17.95;;;13.95;;
37655;SDS011;23498;50.958;3.124;2022-10-12T00:29:37;18.60;;;14.57;;
37655;SDS011;23498;50.958;3.124;2022-10-12T00:32:03;25.80;;;16.75;;
37655;SDS011;23498;50.958;3.124;2022-10-12T00:34:30;22.70;;;16.00;;
37655;SDS011;23498;50.958;3.124;2022-10-12T00:36:56;22.98;;;15.48;;
37655;SDS011;23498;50.958;3.124;2022-10-12T00:39:22;23.25;;;15.68;;
37655;SDS011;23498;50.958;3.124;2022-10-12T00:41:48;24.80;;;16.52;;
37655;SDS011;23498;50.958;3.124;2022-10-12T00:46:58;25.27;;;16.40;;
37655;SDS011;23498;50.958;3.124;2022-10-12T00:49:25;22.55;;;16.02;;
37655;SDS011;23498;50.958;3.124;2022-10-12T00:51:54;23.48;;;15.68;;
37655;SDS011;23498;50.958;3.124;2022-10-12T00:54:22;26.02;;;16.15;;
37655;SDS011;23498;50.958;3.124;2022-10-12T00:56:51;25.38;;;15.95;;
37655;SDS011;23498;50.958;3.124;2022-10-12T00:59:23;24.60;;;18.02;;
37655;SDS011;23498;50.958;3.124;2022-10-12T01:01:51;25.50;;;17.23;;
37655;SDS011;23498;50.958;3.124;2022-10-12T01:04:17;25.08;;;15.68;;
37655;SDS011;23498;50.958;3.124;2022-10-12T01:06:43;23.63;;;17.10;;
37655;SDS011;23498;50.958;3.124;2022-10-12T01:09:09;24.00;;;15.85;;
37655;SDS011;23498;50.958;3.124;2022-10-12T01:11:35;21.98;;;15.95;;
37655;SDS011;23498;50.958;3.124;2022-10-12T01:14:01;25.27;;;17.42;;
37655;SDS011;23498;50.958;3.124;2022-10-12T01:16:28;24.27;;;16.92;;
37655;SDS011;23498;50.958;3.124;2022-10-12T01:21:44;23.65;;;15.75;;
37655;SDS011;23498;50.958;3.124;2022-10-12T01:26:59;21.75;;;15.68;;
37655;SDS011;23498;50.958;3.124;2022-10-12T01:31:56;27.60;;;20.58;;
37655;SDS011;23498;50.958;3.124;2022-10-12T01:34:32;25.45;;;18.20;;
37655;SDS011;23498;50.958;3.124;2022-10-12T01:37:00;23.38;;;16.83;;
37655;SDS011;23498;50.958;3.124;2022-10-12T01:39:45;26.48;;;19.15;;
37655;SDS011;23498;50.958;3.124;2022-10-12T01:42:15;27.80;;;20.00;;
37655;SDS011;23498;50.958;3.124;2022-10-12T01:44:42;25.30;;;18.52;;
37655;SDS011;23498;50.958;3.124;2022-10-12T01:47:08;26.48;;;16.60;;
37655;SDS011;23498;50.958;3.124;2022-10-12T01:49:34;21.38;;;15.68;;
37655;SDS011;23498;50.958;3.124;2022-10-12T01:54:34;22.08;;;15.13;;
37655;SDS011;23498;50.958;3.124;2022-10-12T01:57:04;22.35;;;15.60;;
37655;SDS011;23498;50.958;3.124;2022-10-12T02:02:02;24.15;;;16.08;;
37655;SDS011;23498;50.958;3.124;2022-10-12T02:04:35;23.75;;;16.67;;
37655;SDS011;23498;50.958;3.124;2022-10-12T02:07:03;23.17;;;16.30;;
37655;SDS011;23498;50.958;3.124;2022-10-12T02:09:31;25.45;;;17.40;;
37655;SDS011;23498;50.958;3.124;2022-10-12T02:11:59;25.52;;;18.48;;
37655;SDS011;23498;50.958;3.124;2022-10-12T02:14:29;21.95;;;16.52;;
37655;SDS011;23498;50.958;3.124;2022-10-12T02:16:57;29.60;;;17.23;;
37655;SDS011;23498;50.958;3.124;2022-10-12T02:19:25;23.95;;;17.27;;
37655;SDS011;23498;50.958;3.124;2022-10-12T02:21:52;25.02;;;16.48;;
37655;SDS011;23498;50.958;3.124;2022-10-12T02:24:19;23.90;;;16.95;;
37655;SDS011;23498;50.958;3.124;2022-10-12T02:26:46;23.65;;;16.42;;
37655;SDS011;23498;50.958;3.124;2022-10-12T02:29:15;21.77;;;15.40;;
37655;SDS011;23498;50.958;3.124;2022-10-12T02:34:18;23.00;;;16.95;;
37655;SDS011;23498;50.958;3.124;2022-10-12T02:36:50;24.08;;;16.80;;
37655;SDS011;23498;50.958;3.124;2022-10-12T02:39:22;25.17;;;17.38;;
37655;SDS011;23498;50.958;3.124;2022-10-12T02:41:51;24.13;;;18.38;;
37655;SDS011;23498;50.958;3.124;2022-10-12T02:44:19;28.65;;;17.60;;
37655;SDS011;23498;50.958;3.124;2022-10-12T02:46:47;24.23;;;16.75;;
37655;SDS011;23498;50.958;3.124;2022-10-12T02:49:14;22.75;;;16.58;;
37655;SDS011;23498;50.958;3.124;2022-10-12T02:51:40;26.38;;;16.88;;
37655;SDS011;23498;50.958;3.124;2022-10-12T02:54:07;23.67;;;16.88;;
37655;SDS011;23498;50.958;3.124;2022-10-12T02:56:33;22.73;;;16.88;;
37655;SDS011;23498;50.958;3.124;2022-10-12T02:58:59;24.20;;;16.05;;
37655;SDS011;23498;50.958;3.124;2022-10-12T03:01:25;24.50;;;16.42;;
37655;SDS011;23498;50.958;3.124;2022-10-12T03:03:51;24.80;;;16.42;;
37655;SDS011;23498;50.958;3.124;2022-10-12T03:06:17;28.20;;;17.65;;
37655;SDS011;23498;50.958;3.124;2022-10-12T03:08:44;19.85;;;15.95;;
37655;SDS011;23498;50.958;3.124;2022-10-12T03:11:11;23.00;;;16.60;;
37655;SDS011;23498;50.958;3.124;2022-10-12T03:13:38;19.20;;;15.25;;
37655;SDS011;23498;50.958;3.124;2022-10-12T03:16:05;21.58;;;15.35;;
37655;SDS011;23498;50.958;3.124;2022-10-12T03:18:31;19.95;;;15.35;;
37655;SDS011;23498;50.958;3.124;2022-10-12T03:20:58;22.63;;;16.40;;
37655;SDS011;23498;50.958;3.124;2022-10-12T03:23:25;22.58;;;16.55;;
37655;SDS011;23498;50.958;3.124;2022-10-12T03:25:51;22.60;;;15.73;;
37655;SDS011;23498;50.958;3.124;2022-10-12T03:28:17;21.75;;;15.48;;
37655;SDS011;23498;50.958;3.124;2022-10-12T03:30:43;24.13;;;16.17;;
37655;SDS011;23498;50.958;3.124;2022-10-12T03:33:09;27.05;;;17.58;;
37655;SDS011;23498;50.958;3.124;2022-10-12T03:35:35;23.27;;;16.55;;
37655;SDS011;23498;50.958;3.124;2022-10-12T03:38:01;22.75;;;17.23;;
37655;SDS011;23498;50.958;3.124;2022-10-12T03:40:27;23.33;;;16.42;;
37655;SDS011;23498;50.958;3.124;2022-10-12T03:42:53;24.77;;;17.13;;
37655;SDS011;23498;50.958;3.124;2022-10-12T03:45:19;20.63;;;16.08;;
37655;SDS011;23498;50.958;3.124;2022-10-12T03:47:45;24.30;;;16.10;;
37655;SDS011;23498;50.958;3.124;2022-10-12T03:50:12;22.13;;;15.98;;
37655;SDS011;23498;50.958;3.124;2022-10-12T03:52:38;19.42;;;15.57;;
37655;SDS011;23498;50.958;3.124;2022-10-12T03:55:04;22.52;;;16.15;;
37655;SDS011;23498;50.958;3.124;2022-10-12T03:57:30;20.45;;;14.85;;
37655;SDS011;23498;50.958;3.124;2022-10-12T03:59:56;19.60;;;15.27;;
37655;SDS011;23498;50.958;3.124;2022-10-12T04:02:22;23.40;;;15.93;;
37655;SDS011;23498;50.958;3.124;2022-10-12T04:04:48;23.33;;;15.65;;
37655;SDS011;23498;50.958;3.124;2022-10-12T04:07:14;22.42;;;15.38;;
37655;SDS011;23498;50.958;3.124;2022-10-12T04:09:40;20.85;;;15.07;;
37655;SDS011;23498;50.958;3.124;2022-10-12T04:12:06;25.50;;;16.23;;
37655;SDS011;23498;50.958;3.124;2022-10-12T04:14:32;23.70;;;16.52;;
37655;SDS011;23498;50.958;3.124;2022-10-12T04:16:58;24.50;;;16.42;;
37655;SDS011;23498;50.958;3.124;2022-10-12T04:19:24;28.27;;;17.60;;
37655;SDS011;23498;50.958;3.124;2022-10-12T04:21:50;23.75;;;18.10;;
37655;SDS011;23498;50.958;3.124;2022-10-12T04:24:16;28.33;;;18.25;;
37655;SDS011;23498;50.958;3.124;2022-10-12T04:26:42;23.08;;;16.88;;
37655;SDS011;23498;50.958;3.124;2022-10-12T04:29:10;22.50;;;16.23;;
37655;SDS011;23498;50.958;3.124;2022-10-12T04:31:37;22.67;;;16.05;;
37655;SDS011;23498;50.958;3.124;2022-10-12T04:34:03;21.17;;;16.33;;
37655;SDS011;23498;50.958;3.124;2022-10-12T04:36:29;22.23;;;16.05;;
37655;SDS011;23498;50.958;3.124;2022-10-12T04:38:55;26.65;;;16.67;;
37655;SDS011;23498;50.958;3.124;2022-10-12T04:41:21;22.52;;;15.82;;
37655;SDS011;23498;50.958;3.124;2022-10-12T04:43:47;22.73;;;17.15;;
37655;SDS011;23498;50.958;3.124;2022-10-12T04:46:13;25.08;;;15.63;;
37655;SDS011;23498;50.958;3.124;2022-10-12T04:48:39;21.40;;;15.32;;
37655;SDS011;23498;50.958;3.124;2022-10-12T04:51:05;21.95;;;15.93;;
37655;SDS011;23498;50.958;3.124;2022-10-12T04:53:31;24.30;;;16.13;;
37655;SDS011;23498;50.958;3.124;2022-10-12T04:56:00;24.77;;;17.63;;
37655;SDS011;23498;50.958;3.124;2022-10-12T04:58:27;25.25;;;17.00;;
37655;SDS011;23498;50.958;3.124;2022-10-12T05:00:52;25.13;;;17.15;;
37655;SDS011;23498;50.958;3.124;2022-10-12T05:03:18;27.83;;;18.08;;
37655;SDS011;23498;50.958;3.124;2022-10-12T05:05:44;21.65;;;16.33;;
37655;SDS011;23498;50.958;3.124;2022-10-12T05:08:11;25.75;;;17.20;;
37655;SDS011;23498;50.958;3.124;2022-10-12T05:10:37;24.85;;;16.73;;
37655;SDS011;23498;50.958;3.124;2022-10-12T05:13:03;25.17;;;16.67;;
37655;SDS011;23498;50.958;3.124;2022-10-12T05:15:29;25.48;;;16.35;;
37655;SDS011;23498;50.958;3.124;2022-10-12T05:17:55;19.85;;;16.02;;
37655;SDS011;23498;50.958;3.124;2022-10-12T05:20:21;26.20;;;17.92;;
37655;SDS011;23498;50.958;3.124;2022-10-12T05:22:47;24.25;;;16.83;;
37655;SDS011;23498;50.958;3.124;2022-10-12T05:25:13;23.60;;;16.30;;
37655;SDS011;23498;50.958;3.124;2022-10-12T05:27:39;23.25;;;16.77;;
37655;SDS011;23498;50.958;3.124;2022-10-12T05:30:06;22.58;;;16.67;;
37655;SDS011;23498;50.958;3.124;2022-10-12T05:32:33;24.90;;;17.25;;
37655;SDS011;23498;50.958;3.124;2022-10-12T05:34:59;27.42;;;17.13;;
37655;SDS011;23498;50.958;3.124;2022-10-12T05:37:25;26.58;;;18.02;;
37655;SDS011;23498;50.958;3.124;2022-10-12T05:39:51;27.10;;;17.20;;
37655;SDS011;23498;50.958;3.124;2022-10-12T05:42:17;23.30;;;16.15;;
37655;SDS011;23498;50.958;3.124;2022-10-12T05:44:43;27.80;;;17.13;;
37655;SDS011;23498;50.958;3.124;2022-10-12T05:47:09;23.63;;;16.77;;
37655;SDS011;23498;50.958;3.124;2022-10-12T05:49:35;23.58;;;17.00;;
37655;SDS011;23498;50.958;3.124;2022-10-12T05:52:01;26.30;;;16.63;;
37655;SDS011;23498;50.958;3.124;2022-10-12T05:54:27;26.92;;;17.52;;
37655;SDS011;23498;50.958;3.124;2022-10-12T05:56:53;27.30;;;17.88;;
37655;SDS011;23498;50.958;3.124;2022-10-12T05:59:19;29.08;;;18.88;;
37655;SDS011;23498;50.958;3.124;2022-10-12T06:01:45;28.08;;;17.83;;
37655;SDS011;23498;50.958;3.124;2022-10-12T06:04:13;28.52;;;17.27;;
37655;SDS011;23498;50.958;3.124;2022-10-12T06:06:39;28.13;;;18.30;;
37655;SDS011;23498;50.958;3.124;2022-10-12T06:09:05;33.45;;;20.20;;
37655;SDS011;23498;50.958;3.124;2022-10-12T06:11:31;32.47;;;19.80;;
37655;SDS011;23498;50.958;3.124;2022-10-12T06:13:58;35.17;;;21.45;;
37655;SDS011;23498;50.958;3.124;2022-10-12T06:16:24;31.67;;;20.48;;
37655;SDS011;23498;50.958;3.124;2022-10-12T06:18:50;29.60;;;21.33;;
37655;SDS011;23498;50.958;3.124;2022-10-12T06:21:16;34.90;;;20.92;;
37655;SDS011;23498;50.958;3.124;2022-10-12T06:23:42;37.22;;;23.13;;
37655;SDS011;23498;50.958;3.124;2022-10-12T06:26:08;40.05;;;23.52;;
37655;SDS011;23498;50.958;3.124;2022-10-12T06:28:34;40.63;;;25.17;;
37655;SDS011;23498;50.958;3.124;2022-10-12T06:31:00;37.20;;;24.15;;
37655;SDS011;23498;50.958;3.124;2022-10-12T06:33:26;45.70;;;28.60;;
37655;SDS011;23498;50.958;3.124;2022-10-12T06:35:53;38.53;;;25.15;;
37655;SDS011;23498;50.958;3.124;2022-10-12T06:38:19;36.92;;;25.73;;
37655;SDS011;23498;50.958;3.124;2022-10-12T06:40:45;32.50;;;21.88;;
37655;SDS011;23498;50.958;3.124;2022-10-12T06:43:11;37.17;;;22.08;;
37655;SDS011;23498;50.958;3.124;2022-10-12T06:45:37;36.20;;;20.98;;
37655;SDS011;23498;50.958;3.124;2022-10-12T06:48:05;29.33;;;20.35;;
37655;SDS011;23498;50.958;3.124;2022-10-12T06:50:31;32.70;;;20.15;;
37655;SDS011;23498;50.958;3.124;2022-10-12T06:52:57;32.47;;;22.23;;
37655;SDS011;23498;50.958;3.124;2022-10-12T06:55:23;35.40;;;22.35;;
37655;SDS011;23498;50.958;3.124;2022-10-12T06:57:49;36.58;;;25.40;;
37655;SDS011;23498;50.958;3.124;2022-10-12T07:00:15;39.28;;;26.50;;
37655;SDS011;23498;50.958;3.124;2022-10-12T07:02:41;34.83;;;24.40;;
37655;SDS011;23498;50.958;3.124;2022-10-12T07:05:07;37.92;;;24.13;;
37655;SDS011;23498;50.958;3.124;2022-10-12T07:07:34;35.17;;;23.35;;
37655;SDS011;23498;50.958;3.124;2022-10-12T07:10:01;33.35;;;22.25;;
37655;SDS011;23498;50.958;3.124;2022-10-12T07:12:28;31.08;;;23.13;;
37655;SDS011;23498;50.958;3.124;2022-10-12T07:14:54;33.42;;;23.00;;
37655;SDS011;23498;50.958;3.124;2022-10-12T07:17:21;30.08;;;22.60;;
37655;SDS011;23498;50.958;3.124;2022-10-12T07:19:47;35.38;;;23.85;;
37655;SDS011;23498;50.958;3.124;2022-10-12T07:22:13;44.00;;;25.85;;
37655;SDS011;23498;50.958;3.124;2022-10-12T07:24:39;47.65;;;30.02;;
37655;SDS011;23498;50.958;3.124;2022-10-12T07:27:06;45.00;;;27.80;;
37655;SDS011;23498;50.958;3.124;2022-10-12T07:29:33;43.05;;;28.38;;
37655;SDS011;23498;50.958;3.124;2022-10-12T07:32:00;49.10;;;32.25;;
37655;SDS011;23498;50.958;3.124;2022-10-12T07:34:26;42.33;;;29.85;;
37655;SDS011;23498;50.958;3.124;2022-10-12T07:36:54;51.22;;;32.88;;
37655;SDS011;23498;50.958;3.124;2022-10-12T07:39:21;50.55;;;33.17;;
37655;SDS011;23498;50.958;3.124;2022-10-12T07:41:48;51.75;;;34.05;;
37655;SDS011;23498;50.958;3.124;2022-10-12T07:44:15;49.53;;;30.15;;
37655;SDS011;23498;50.958;3.124;2022-10-12T07:46:41;42.85;;;29.48;;
37655;SDS011;23498;50.958;3.124;2022-10-12T07:49:07;38.03;;;26.02;;
37655;SDS011;23498;50.958;3.124;2022-10-12T07:51:33;43.38;;;26.30;;
37655;SDS011;23498;50.958;3.124;2022-10-12T07:53:59;42.80;;;27.00;;
37655;SDS011;23498;50.958;3.124;2022-10-12T07:56:25;34.28;;;24.45;;
37655;SDS011;23498;50.958;3.124;2022-10-12T07:58:52;33.47;;;24.05;;
37655;SDS011;23498;50.958;3.124;2022-10-12T08:01:19;37.28;;;23.98;;
37655;SDS011;23498;50.958;3.124;2022-10-12T08:03:45;41.47;;;25.40;;
37655;SDS011;23498;50.958;3.124;2022-10-12T08:06:16;34.30;;;23.10;;
37655;SDS011;23498;50.958;3.124;2022-10-12T08:08:42;33.05;;;21.05;;
37655;SDS011;23498;50.958;3.124;2022-10-12T08:11:09;48.10;;;25.77;;
37655;SDS011;23498;50.958;3.124;2022-10-12T08:13:35;34.72;;;23.50;;
37655;SDS011;23498;50.958;3.124;2022-10-12T08:16:02;46.30;;;26.83;;
37655;SDS011;23498;50.958;3.124;2022-10-12T08:18:28;44.05;;;25.15;;
37655;SDS011;23498;50.958;3.124;2022-10-12T08:20:54;38.38;;;23.05;;
37655;SDS011;23498;50.958;3.124;2022-10-12T08:23:20;35.45;;;20.50;;
37655;SDS011;23498;50.958;3.124;2022-10-12T08:25:53;34.03;;;22.80;;
37655;SDS011;23498;50.958;3.124;2022-10-12T08:28:20;38.33;;;25.08;;
37655;SDS011;23498;50.958;3.124;2022-10-12T08:30:46;34.78;;;22.90;;
37655;SDS011;23498;50.958;3.124;2022-10-12T08:33:12;35.08;;;22.40;;
37655;SDS011;23498;50.958;3.124;2022-10-12T08:35:39;42.45;;;25.20;;
37655;SDS011;23498;50.958;3.124;2022-10-12T08:38:05;38.65;;;23.77;;
37655;SDS011;23498;50.958;3.124;2022-10-12T08:40:33;37.08;;;21.50;;
37655;SDS011;23498;50.958;3.124;2022-10-12T08:43:19;34.60;;;20.50;;
37655;SDS011;23498;50.958;3.124;2022-10-12T08:45:54;32.55;;;19.42;;
37655;SDS011;23498;50.958;3.124;2022-10-12T08:48:21;35.90;;;20.23;;
37655;SDS011;23498;50.958;3.124;2022-10-12T08:50:50;28.35;;;17.55;;
37655;SDS011;23498;50.958;3.124;2022-10-12T08:53:29;36.15;;;19.42;;
37655;SDS011;23498;50.958;3.124;2022-10-12T08:55:57;32.88;;;18.45;;
37655;SDS011;23498;50.958;3.124;2022-10-12T08:58:28;27.50;;;17.67;;
37655;SDS011;23498;50.958;3.124;2022-10-12T09:06:20;29.83;;;17.20;;
37655;SDS011;23498;50.958;3.124;2022-10-12T09:14:16;30.92;;;18.00;;
37655;SDS011;23498;50.958;3.124;2022-10-12T09:16:42;29.10;;;19.30;;
37655;SDS011;23498;50.958;3.124;2022-10-12T09:19:12;30.08;;;17.70;;
37655;SDS011;23498;50.958;3.124;2022-10-12T09:21:40;32.85;;;17.90;;
37655;SDS011;23498;50.958;3.124;2022-10-12T09:24:17;33.25;;;19.98;;
37655;SDS011;23498;50.958;3.124;2022-10-12T09:26:43;34.13;;;18.23;;
37655;SDS011;23498;50.958;3.124;2022-10-12T09:29:29;32.60;;;18.70;;
37655;SDS011;23498;50.958;3.124;2022-10-12T09:34:22;30.70;;;18.80;;
37655;SDS011;23498;50.958;3.124;2022-10-12T09:36:48;29.60;;;19.92;;
37655;SDS011;23498;50.958;3.124;2022-10-12T09:39:17;33.25;;;19.58;;
37655;SDS011;23498;50.958;3.124;2022-10-12T09:41:45;33.00;;;18.70;;
37655;SDS011;23498;50.958;3.124;2022-10-12T09:44:25;34.13;;;20.10;;
37655;SDS011;23498;50.958;3.124;2022-10-12T09:47:04;33.88;;;19.48;;
37655;SDS011;23498;50.958;3.124;2022-10-12T09:49:43;34.97;;;19.48;;
37655;SDS011;23498;50.958;3.124;2022-10-12T09:52:10;36.80;;;20.33;;
37655;SDS011;23498;50.958;3.124;2022-10-12T09:54:54;31.15;;;20.55;;
37655;SDS011;23498;50.958;3.124;2022-10-12T09:57:25;31.80;;;19.65;;
37655;SDS011;23498;50.958;3.124;2022-10-12T09:59:51;31.15;;;20.88;;
37655;SDS011;23498;50.958;3.124;2022-10-12T10:02:18;28.05;;;18.83;;
37655;SDS011;23498;50.958;3.124;2022-10-12T10:04:45;35.17;;;20.40;;
37655;SDS011;23498;50.958;3.124;2022-10-12T10:09:47;34.53;;;21.63;;
37655;SDS011;23498;50.958;3.124;2022-10-12T10:12:21;31.88;;;20.42;;
37655;SDS011;23498;50.958;3.124;2022-10-12T10:14:48;28.00;;;17.30;;
37655;SDS011;23498;50.958;3.124;2022-10-12T10:17:15;30.08;;;17.20;;
37655;SDS011;23498;50.958;3.124;2022-10-12T10:19:51;27.88;;;16.42;;
37655;SDS011;23498;50.958;3.124;2022-10-12T10:22:17;30.98;;;17.45;;
37655;SDS011;23498;50.958;3.124;2022-10-12T10:24:48;27.95;;;17.00;;
37655;SDS011;23498;50.958;3.124;2022-10-12T10:27:28;26.98;;;16.25;;
37655;SDS011;23498;50.958;3.124;2022-10-12T10:30:06;28.52;;;17.35;;
37655;SDS011;23498;50.958;3.124;2022-10-12T10:32:32;27.30;;;15.93;;
37655;SDS011;23498;50.958;3.124;2022-10-12T10:34:59;24.25;;;14.73;;
37655;SDS011;23498;50.958;3.124;2022-10-12T10:37:25;24.55;;;15.50;;
37655;SDS011;23498;50.958;3.124;2022-10-12T10:39:52;29.75;;;15.48;;
37655;SDS011;23498;50.958;3.124;2022-10-12T10:42:20;25.45;;;13.98;;
37655;SDS011;23498;50.958;3.124;2022-10-12T10:44:51;22.77;;;13.95;;
37655;SDS011;23498;50.958;3.124;2022-10-12T10:47:17;24.42;;;14.40;;
37655;SDS011;23498;50.958;3.124;2022-10-12T10:49:52;25.42;;;14.73;;
37655;SDS011;23498;50.958;3.124;2022-10-12T10:54:49;24.77;;;14.35;;
37655;SDS011;23498;50.958;3.124;2022-10-12T10:57:30;25.42;;;15.20;;
37655;SDS011;23498;50.958;3.124;2022-10-12T11:00:19;23.15;;;14.27;;
37655;SDS011;23498;50.958;3.124;2022-10-12T11:02:46;24.75;;;14.80;;
37655;SDS011;23498;50.958;3.124;2022-10-12T11:05:18;22.23;;;14.77;;
37655;SDS011;23498;50.958;3.124;2022-10-12T11:07:55;25.30;;;15.13;;
37655;SDS011;23498;50.958;3.124;2022-10-12T11:12:49;22.00;;;11.60;;
37655;SDS011;23498;50.958;3.124;2022-10-12T11:15:19;25.45;;;12.98;;
37655;SDS011;23498;50.958;3.124;2022-10-12T11:17:47;24.77;;;12.70;;
37655;SDS011;23498;50.958;3.124;2022-10-12T11:20:29;23.90;;;12.13;;
37655;SDS011;23498;50.958;3.124;2022-10-12T11:22:57;17.65;;;10.95;;
37655;SDS011;23498;50.958;3.124;2022-10-12T11:25:30;21.70;;;11.95;;
37655;SDS011;23498;50.958;3.124;2022-10-12T11:27:59;22.92;;;10.95;;
37655;SDS011;23498;50.958;3.124;2022-10-12T11:30:25;16.88;;;9.63;;
37655;SDS011;23498;50.958;3.124;2022-10-12T11:33:00;21.23;;;9.65;;
37655;SDS011;23498;50.958;3.124;2022-10-12T11:35:29;16.95;;;9.63;;
37655;SDS011;23498;50.958;3.124;2022-10-12T11:38:00;23.95;;;9.50;;
37655;SDS011;23498;50.958;3.124;2022-10-12T11:40:28;17.55;;;8.30;;
37655;SDS011;23498;50.958;3.124;2022-10-12T11:42:57;16.02;;;7.88;;
37655;SDS011;23498;50.958;3.124;2022-10-12T11:45:26;20.58;;;9.27;;
37655;SDS011;23498;50.958;3.124;2022-10-12T11:47:56;18.13;;;8.98;;
37655;SDS011;23498;50.958;3.124;2022-10-12T11:50:41;15.82;;;9.52;;
37655;SDS011;23498;50.958;3.124;2022-10-12T11:53:13;16.90;;;8.95;;
37655;SDS011;23498;50.958;3.124;2022-10-12T11:58:08;17.92;;;7.95;;
37655;SDS011;23498;50.958;3.124;2022-10-12T12:00:40;15.20;;;7.03;;
37655;SDS011;23498;50.958;3.124;2022-10-12T12:05:40;13.93;;;6.55;;
37655;SDS011;23498;50.958;3.124;2022-10-12T12:08:06;14.90;;;6.20;;
37655;SDS011;23498;50.958;3.124;2022-10-12T12:13:37;17.67;;;7.38;;
37655;SDS011;23498;50.958;3.124;2022-10-12T12:21:24;18.23;;;7.65;;
37655;SDS011;23498;50.958;3.124;2022-10-12T12:23:50;14.45;;;7.53;;
37655;SDS011;23498;50.958;3.124;2022-10-12T12:26:17;17.17;;;6.68;;
37655;SDS011;23498;50.958;3.124;2022-10-12T12:28:48;16.00;;;6.70;;
37655;SDS011;23498;50.958;3.124;2022-10-12T12:33:41;14.43;;;5.47;;
37655;SDS011;23498;50.958;3.124;2022-10-12T12:38:54;12.85;;;5.05;;
37655;SDS011;23498;50.958;3.124;2022-10-12T12:41:21;9.80;;;4.88;;
37655;SDS011;23498;50.958;3.124;2022-10-12T12:43:56;10.20;;;5.20;;
37655;SDS011;23498;50.958;3.124;2022-10-12T12:46:24;13.13;;;5.63;;
37655;SDS011;23498;50.958;3.124;2022-10-12T12:51:18;10.98;;;5.70;;
37655;SDS011;23498;50.958;3.124;2022-10-12T12:53:56;15.90;;;6.25;;
37655;SDS011;23498;50.958;3.124;2022-10-12T12:59:01;11.98;;;6.82;;
37655;SDS011;23498;50.958;3.124;2022-10-12T13:19:18;12.57;;;5.93;;
37655;SDS011;23498;50.958;3.124;2022-10-12T13:21:48;12.90;;;6.03;;
37655;SDS011;23498;50.958;3.124;2022-10-12T13:26:50;13.63;;;5.95;;
37655;SDS011;23498;50.958;3.124;2022-10-12T13:29:20;12.82;;;5.50;;
37655;SDS011;23498;50.958;3.124;2022-10-12T13:31:47;11.65;;;4.90;;
37655;SDS011;23498;50.958;3.124;2022-10-12T13:34:16;16.25;;;5.20;;
37655;SDS011;23498;50.958;3.124;2022-10-12T13:36:57;12.30;;;4.68;;
37655;SDS011;23498;50.958;3.124;2022-10-12T13:39:23;12.35;;;5.30;;
37655;SDS011;23498;50.958;3.124;2022-10-12T13:41:50;11.45;;;4.82;;
37655;SDS011;23498;50.958;3.124;2022-10-12T13:44:22;10.32;;;4.38;;
37655;SDS011;23498;50.958;3.124;2022-10-12T13:46:54;10.35;;;4.53;;
37655;SDS011;23498;50.958;3.124;2022-10-12T13:49:21;10.23;;;3.55;;
37655;SDS011;23498;50.958;3.124;2022-10-12T13:51:49;11.30;;;4.22;;
37655;SDS011;23498;50.958;3.124;2022-10-12T13:56:41;10.38;;;4.60;;
37655;SDS011;23498;50.958;3.124;2022-10-12T13:59:12;12.93;;;4.55;;
37655;SDS011;23498;50.958;3.124;2022-10-12T14:01:47;10.65;;;4.72;;
37655;SDS011;23498;50.958;3.124;2022-10-12T14:04:13;15.75;;;5.72;;
37655;SDS011;23498;50.958;3.124;2022-10-12T14:06:39;12.80;;;5.32;;
37655;SDS011;23498;50.958;3.124;2022-10-12T14:09:07;13.32;;;5.45;;
37655;SDS011;23498;50.958;3.124;2022-10-12T14:11:34;11.00;;;5.07;;
37655;SDS011;23498;50.958;3.124;2022-10-12T14:14:01;14.68;;;5.18;;
37655;SDS011;23498;50.958;3.124;2022-10-12T14:16:28;11.90;;;5.35;;
37655;SDS011;23498;50.958;3.124;2022-10-12T14:18:54;16.63;;;5.90;;
37655;SDS011;23498;50.958;3.124;2022-10-12T14:21:24;13.60;;;5.80;;
37655;SDS011;23498;50.958;3.124;2022-10-12T14:26:27;13.13;;;6.00;;
37655;SDS011;23498;50.958;3.124;2022-10-12T14:28:54;16.23;;;6.00;;
37655;SDS011;23498;50.958;3.124;2022-10-12T14:37:00;12.20;;;5.90;;
37655;SDS011;23498;50.958;3.124;2022-10-12T14:39:26;17.02;;;7.07;;
37655;SDS011;23498;50.958;3.124;2022-10-12T14:41:52;18.08;;;7.60;;
37655;SDS011;23498;50.958;3.124;2022-10-12T14:44:19;15.70;;;7.15;;
37655;SDS011;23498;50.958;3.124;2022-10-12T14:46:50;17.65;;;7.68;;
37655;SDS011;23498;50.958;3.124;2022-10-12T14:49:18;16.38;;;7.35;;
37655;SDS011;23498;50.958;3.124;2022-10-12T14:51:45;18.08;;;7.55;;
37655;SDS011;23498;50.958;3.124;2022-10-12T14:54:11;17.58;;;8.95;;
37655;SDS011;23498;50.958;3.124;2022-10-12T14:56:37;19.77;;;8.27;;
37655;SDS011;23498;50.958;3.124;2022-10-12T14:59:03;19.20;;;7.95;;
37655;SDS011;23498;50.958;3.124;2022-10-12T15:01:29;18.30;;;7.97;;
37655;SDS011;23498;50.958;3.124;2022-10-12T15:03:55;18.98;;;8.90;;
37655;SDS011;23498;50.958;3.124;2022-10-12T15:06:21;15.88;;;8.20;;
37655;SDS011;23498;50.958;3.124;2022-10-12T15:08:47;21.50;;;8.73;;
37655;SDS011;23498;50.958;3.124;2022-10-12T15:11:14;16.40;;;8.40;;
37655;SDS011;23498;50.958;3.124;2022-10-12T15:13:40;19.40;;;9.05;;
37655;SDS011;23498;50.958;3.124;2022-10-12T15:16:15;19.23;;;8.32;;
37655;SDS011;23498;50.958;3.124;2022-10-12T15:18:43;19.58;;;8.45;;
37655;SDS011;23498;50.958;3.124;2022-10-12T15:21:09;17.48;;;8.23;;
37655;SDS011;23498;50.958;3.124;2022-10-12T15:23:35;23.83;;;9.27;;
37655;SDS011;23498;50.958;3.124;2022-10-12T15:26:01;16.45;;;7.78;;
37655;SDS011;23498;50.958;3.124;2022-10-12T15:28:27;19.50;;;7.88;;
37655;SDS011;23498;50.958;3.124;2022-10-12T15:30:55;18.15;;;7.35;;
37655;SDS011;23498;50.958;3.124;2022-10-12T15:33:21;14.32;;;7.38;;
37655;SDS011;23498;50.958;3.124;2022-10-12T15:35:48;15.50;;;7.22;;
37655;SDS011;23498;50.958;3.124;2022-10-12T15:38:14;14.48;;;6.75;;
37655;SDS011;23498;50.958;3.124;2022-10-12T15:40:40;16.40;;;6.53;;
37655;SDS011;23498;50.958;3.124;2022-10-12T15:43:08;14.88;;;7.00;;
37655;SDS011;23498;50.958;3.124;2022-10-12T15:45:34;13.85;;;6.63;;
37655;SDS011;23498;50.958;3.124;2022-10-12T15:48:02;12.15;;;6.45;;
37655;SDS011;23498;50.958;3.124;2022-10-12T15:50:33;12.68;;;5.90;;
37655;SDS011;23498;50.958;3.124;2022-10-12T15:53:00;12.80;;;6.22;;
37655;SDS011;23498;50.958;3.124;2022-10-12T15:55:27;17.17;;;6.13;;
37655;SDS011;23498;50.958;3.124;2022-10-12T15:57:54;11.63;;;5.40;;
37655;SDS011;23498;50.958;3.124;2022-10-12T16:00:27;17.88;;;5.78;;
37655;SDS011;23498;50.958;3.124;2022-10-12T16:03:01;18.48;;;6.15;;